createdAt,value
2018-09-23T00:01:26.186Z,65.90
2018-09-23T00:03:53.701Z,66.60
2018-09-23T00:06:21.410Z,66.50
2018-09-23T00:08:48.916Z,67.10
2018-09-23T00:11:16.485Z,68.20
2018-09-23T00:13:44.075Z,69.10
2018-09-23T00:16:11.941Z,70.80
2018-09-23T00:18:39.545Z,70.80
2018-09-23T00:21:07.206Z,71.00
2018-09-23T00:23:34.753Z,73.10
2018-09-23T00:26:02.607Z,73.10
2018-09-23T00:28:30.184Z,73.30
2018-09-23T00:30:57.798Z,73.80
2018-09-23T00:33:25.339Z,74.10
2018-09-23T00:35:52.949Z,73.80
2018-09-23T00:38:20.471Z,75.00
2018-09-23T00:40:48.085Z,76.10
2018-09-23T00:43:15.642Z,76.80
2018-09-23T00:45:43.237Z,78.00
2018-09-23T00:48:10.922Z,78.00
2018-09-23T00:50:38.659Z,78.20
2018-09-23T00:53:06.239Z,78.10
2018-09-23T00:55:33.994Z,77.90
2018-09-23T00:58:01.472Z,78.10
2018-09-23T01:00:29.064Z,78.40
2018-09-23T01:02:56.635Z,79.40
2018-09-23T01:05:24.266Z,78.50
2018-09-23T01:07:52.747Z,78.90
2018-09-23T01:10:20.581Z,80.20
2018-09-23T01:12:48.368Z,81.00
2018-09-23T01:15:16.077Z,80.60
2018-09-23T01:17:43.746Z,80.70
2018-09-23T01:20:11.434Z,81.50
2018-09-23T01:22:39.298Z,82.10
2018-09-23T01:25:06.948Z,82.10
2018-09-23T01:27:34.626Z,83.20
2018-09-23T01:30:02.713Z,83.50
2018-09-23T01:32:30.647Z,84.00
2018-09-23T01:35:00.776Z,84.10
2018-09-23T01:37:31.877Z,85.60
2018-09-23T01:40:01.822Z,85.60
2018-09-23T01:42:34.991Z,86.10
2018-09-23T01:45:12.904Z,86.00
2018-09-23T01:47:44.438Z,86.40
2018-09-23T01:50:16.669Z,88.00
2018-09-23T01:52:51.485Z,87.70
2018-09-23T01:55:24.457Z,88.80
2018-09-23T01:57:55.806Z,88.60
2018-09-23T02:00:30.638Z,89.20
2018-09-23T02:03:02.645Z,88.80
2018-09-23T02:08:02.961Z,88.00
2018-09-23T02:10:40.135Z,88.90
2018-09-23T02:13:07.885Z,88.70
2018-09-23T02:15:37.916Z,88.30
2018-09-23T02:18:06.185Z,89.30
2018-09-23T02:20:37.727Z,90.20
2018-09-23T02:23:09.350Z,90.30
2018-09-23T02:25:40.942Z,90.20
2018-09-23T02:28:13.698Z,90.60
2018-09-23T02:30:45.371Z,90.70
2018-09-23T02:33:15.049Z,90.90
2018-09-23T02:35:46.722Z,91.10
2018-09-23T02:38:17.832Z,91.00
2018-09-23T02:40:47.468Z,91.00
2018-09-23T02:43:16.346Z,91.40
2018-09-23T02:45:48.626Z,91.50
2018-09-23T02:48:18.153Z,91.70
2018-09-23T02:50:47.490Z,91.70
2018-09-23T02:53:18.066Z,91.80
2018-09-23T02:55:46.943Z,91.70
2018-09-23T02:58:16.310Z,91.90
2018-09-23T03:00:45.437Z,92.00
2018-09-23T03:03:14.614Z,92.20
2018-09-23T03:05:44.453Z,92.20
2018-09-23T03:08:14.057Z,92.40
2018-09-23T03:10:42.142Z,92.80
2018-09-23T03:13:10.468Z,92.80
2018-09-23T03:15:38.776Z,92.80
2018-09-23T03:18:07.065Z,92.60
2018-09-23T03:20:36.459Z,92.50
2018-09-23T03:23:04.207Z,92.60
2018-09-23T03:25:32.801Z,92.70
2018-09-23T03:28:00.963Z,93.10
2018-09-23T03:30:29.036Z,93.10
2018-09-23T03:32:57.985Z,92.80
2018-09-23T03:35:25.786Z,92.90
2018-09-23T03:37:53.470Z,92.80
2018-09-23T03:40:21.680Z,92.70
2018-09-23T03:42:50.588Z,92.80
2018-09-23T03:45:18.300Z,92.70
2018-09-23T03:47:46.140Z,92.60
2018-09-23T03:50:14.084Z,92.50
2018-09-23T03:52:42.882Z,92.60
2018-09-23T03:55:12.174Z,92.70
2018-09-23T03:57:39.938Z,92.80
2018-09-23T04:00:08.070Z,92.60
2018-09-23T04:02:36.679Z,92.60
2018-09-23T04:05:05.553Z,92.70
2018-09-23T04:07:33.630Z,92.40
2018-09-23T04:10:02.581Z,92.30
2018-09-23T04:12:31.310Z,92.40
2018-09-23T04:14:59.560Z,92.40
2018-09-23T04:17:28.578Z,92.30
2018-09-23T04:19:57.596Z,92.40
2018-09-23T04:22:27.999Z,92.30
2018-09-23T04:24:57.553Z,92.30
2018-09-23T04:27:26.370Z,92.30
2018-09-23T04:29:54.970Z,92.40
2018-09-23T04:32:23.586Z,92.50
2018-09-23T04:34:51.982Z,92.50
2018-09-23T04:37:19.875Z,92.70
2018-09-23T04:39:48.894Z,92.60
2018-09-23T04:42:34.586Z,92.70
2018-09-23T04:45:40.697Z,93.10
2018-09-23T04:48:16.208Z,93.30
2018-09-23T04:51:57.077Z,93.20
2018-09-23T04:54:28.448Z,93.50
2018-09-23T04:57:00.133Z,93.60
2018-09-23T05:02:35.880Z,94.70
2018-09-23T05:05:06.823Z,94.50
2018-09-23T05:07:37.461Z,94.60
2018-09-23T05:10:08.443Z,94.70
2018-09-23T05:12:38.790Z,95.00
2018-09-23T05:15:08.055Z,95.10
2018-09-23T05:17:44.642Z,95.00
2018-09-23T05:20:15.969Z,95.10
2018-09-23T05:22:46.547Z,95.30
2018-09-23T05:25:21.290Z,95.20
2018-09-23T05:27:56.897Z,95.50
2018-09-23T05:30:28.247Z,95.60
2018-09-23T05:33:00.383Z,95.70
2018-09-23T05:35:31.330Z,95.90
2018-09-23T05:38:06.412Z,96.10
2018-09-23T05:40:39.746Z,96.20
2018-09-23T05:43:10.461Z,96.10
2018-09-23T05:45:39.184Z,96.40
2018-09-23T05:48:09.498Z,96.30
2018-09-23T05:50:40.065Z,96.40
2018-09-23T05:53:10.250Z,96.60
2018-09-23T05:55:42.196Z,96.60
2018-09-23T05:58:13.393Z,97.00
2018-09-23T06:00:50.819Z,97.00
2018-09-23T06:03:22.828Z,97.10
2018-09-23T06:05:52.235Z,97.20
2018-09-23T06:08:24.101Z,96.90
2018-09-23T06:10:53.075Z,96.90
2018-09-23T06:13:22.201Z,97.00
2018-09-23T06:15:51.512Z,96.70
2018-09-23T06:18:19.584Z,96.70
2018-09-23T06:20:47.818Z,97.10
2018-09-23T06:23:17.458Z,97.40
2018-09-23T06:25:45.526Z,97.10
2018-09-23T06:28:14.403Z,96.90
2018-09-23T06:30:43.321Z,97.10
2018-09-23T06:33:11.510Z,96.80
2018-09-23T06:35:39.752Z,96.80
2018-09-23T06:38:08.319Z,96.90
2018-09-23T06:40:37.455Z,96.50
2018-09-23T06:43:06.533Z,96.20
2018-09-23T06:45:36.109Z,96.70
2018-09-23T06:48:04.219Z,96.50
2018-09-23T06:50:32.960Z,96.00
2018-09-23T06:53:04.159Z,96.10
2018-09-23T06:55:31.946Z,96.10
2018-09-23T06:57:59.925Z,95.50
2018-09-23T07:00:28.169Z,95.60
2018-09-23T07:02:57.317Z,95.20
2018-09-23T07:05:25.584Z,95.30
2018-09-23T07:07:55.141Z,95.10
2018-09-23T07:10:24.957Z,95.00
2018-09-23T07:12:53.068Z,95.20
2018-09-23T07:15:22.011Z,94.90
2018-09-23T07:17:52.332Z,94.70
2018-09-23T07:20:22.749Z,94.50
2018-09-23T07:22:51.658Z,94.30
2018-09-23T07:25:19.921Z,93.80
2018-09-23T07:27:48.650Z,93.40
2018-09-23T07:30:16.508Z,93.40
2018-09-23T07:32:44.180Z,93.00
2018-09-23T07:35:12.370Z,92.90
2018-09-23T07:37:42.748Z,92.80
2018-09-23T07:40:11.053Z,92.50
2018-09-23T07:42:39.153Z,92.20
2018-09-23T07:45:07.044Z,92.20
2018-09-23T07:47:35.483Z,92.40
2018-09-23T07:50:04.363Z,92.50
2018-09-23T07:52:35.174Z,92.30
2018-09-23T07:55:06.330Z,91.90
2018-09-23T07:57:37.213Z,92.10
2018-09-23T08:00:09.122Z,91.80
2018-09-23T08:02:39.947Z,91.70
2018-09-23T08:05:11.190Z,91.70
2018-09-23T08:07:44.411Z,91.80
2018-09-23T08:10:24.453Z,91.90
2018-09-23T08:12:59.057Z,91.90
2018-09-23T08:15:30.394Z,92.60
2018-09-23T08:18:01.462Z,92.40
2018-09-23T08:20:30.396Z,91.80
2018-09-23T08:23:08.206Z,92.00
2018-09-23T08:25:49.416Z,92.10
2018-09-23T08:28:30.113Z,91.90
2018-09-23T08:31:05.691Z,92.00
2018-09-23T08:33:38.716Z,91.90
2018-09-23T08:36:18.146Z,91.50
2018-09-23T08:38:59.685Z,91.10
2018-09-23T08:41:42.544Z,90.80
2018-09-23T08:44:24.162Z,91.00
2018-09-23T08:47:01.981Z,91.30
2018-09-23T08:49:43.964Z,91.00
2018-09-23T08:52:23.229Z,90.90
2018-09-23T08:55:01.983Z,91.30
2018-09-23T08:57:42.908Z,91.40
2018-09-23T09:00:24.947Z,91.90
2018-09-23T09:03:02.133Z,92.10
2018-09-23T09:05:44.009Z,92.40
2018-09-23T09:08:36.333Z,92.50
2018-09-23T09:11:18.932Z,92.10
2018-09-23T09:13:59.662Z,92.60
2018-09-23T09:16:44.207Z,92.40
2018-09-23T09:19:31.140Z,92.30
2018-09-23T09:22:21.195Z,92.10
2018-09-23T09:24:59.255Z,92.60
2018-09-23T09:30:55.645Z,92.20
2018-09-23T09:33:51.657Z,92.10
2018-09-23T09:36:48.439Z,91.40
2018-09-23T09:39:35.033Z,91.00
2018-09-23T09:53:38.408Z,90.90
2018-09-23T09:56:19.187Z,91.20
2018-09-23T09:59:03.258Z,90.90
2018-09-23T10:01:49.027Z,91.00
2018-09-23T10:04:44.296Z,90.40
2018-09-23T10:16:26.248Z,90.20
2018-09-23T10:19:04.522Z,89.70
2018-09-23T10:21:54.307Z,90.10
2018-09-23T10:24:35.506Z,90.00
2018-09-23T10:27:21.120Z,89.40
2018-09-23T10:32:49.296Z,88.90
2018-09-23T10:35:17.851Z,87.60
2018-09-23T10:37:50.568Z,87.70
2018-09-23T10:40:18.126Z,87.10
2018-09-23T10:43:08.294Z,86.70
2018-09-23T10:45:59.614Z,87.30
2018-09-23T10:48:38.390Z,86.40
2018-09-23T10:51:16.309Z,87.90
2018-09-23T10:54:08.620Z,86.30
2018-09-23T10:59:37.966Z,86.20
2018-09-23T11:02:17.785Z,85.40
2018-09-23T11:04:46.732Z,85.30
2018-09-23T11:07:18.888Z,85.60
2018-09-23T11:09:49.050Z,87.30
2018-09-23T11:12:27.723Z,83.90
2018-09-23T11:14:59.101Z,83.50
2018-09-23T11:17:30.209Z,82.90
2018-09-23T11:20:00.145Z,82.20
2018-09-23T11:22:35.164Z,80.40
2018-09-23T11:25:15.985Z,78.30
2018-09-23T11:28:05.618Z,79.40
2018-09-23T11:35:03.211Z,76.50
2018-09-23T11:37:32.768Z,77.20
2018-09-23T11:40:03.745Z,76.00
2018-09-23T11:42:42.734Z,75.80
2018-09-23T11:45:12.994Z,74.40
2018-09-23T11:47:41.402Z,75.00
2018-09-23T11:50:17.009Z,74.50
2018-09-23T11:56:02.497Z,75.00
2018-09-23T12:15:26.349Z,73.90
2018-09-23T12:17:55.993Z,73.50
2018-09-23T12:20:25.976Z,75.30
2018-09-23T12:22:54.252Z,74.20
2018-09-23T12:25:25.341Z,74.60
2018-09-23T12:27:53.693Z,74.70
2018-09-23T12:30:22.223Z,74.60
2018-09-23T12:32:52.201Z,74.20
2018-09-23T12:35:21.127Z,73.30
2018-09-23T12:37:53.407Z,73.80
2018-09-23T12:43:01.965Z,72.00
2018-09-23T12:45:31.857Z,71.80
2018-09-23T12:48:01.835Z,71.70
2018-09-23T12:50:32.983Z,71.70
2018-09-23T12:53:54.252Z,72.50
2018-09-23T12:56:25.071Z,73.00
2018-09-23T12:58:55.798Z,72.20
2018-09-23T13:01:28.831Z,70.20
2018-09-23T13:04:03.520Z,69.90
2018-09-23T13:06:43.760Z,69.50
2018-09-23T13:09:14.492Z,69.90
2018-09-23T13:11:56.861Z,70.10
2018-09-23T13:14:25.793Z,69.90
2018-09-23T13:17:00.213Z,70.80
2018-09-23T13:19:30.004Z,71.30
2018-09-23T13:21:59.348Z,71.90
2018-09-23T13:24:30.319Z,73.30
2018-09-23T13:27:00.050Z,73.10
2018-09-23T13:29:29.195Z,73.00
2018-09-23T13:31:58.609Z,73.20
2018-09-23T13:34:29.955Z,74.10
2018-09-23T13:36:59.649Z,73.60
2018-09-23T13:39:29.193Z,73.50
2018-09-23T13:44:41.541Z,74.00
2018-09-23T13:47:19.289Z,74.00
2018-09-23T13:49:50.957Z,73.70
2018-09-23T13:52:26.803Z,74.50
2018-09-23T13:55:01.847Z,74.30
2018-09-23T13:57:36.707Z,74.50
2018-09-23T14:00:10.412Z,74.70
2018-09-23T14:02:38.596Z,75.50
2018-09-23T14:05:14.520Z,75.90
2018-09-23T14:07:48.707Z,75.90
2018-09-23T14:10:23.321Z,75.00
2018-09-23T14:12:57.081Z,75.30
2018-09-23T14:15:27.342Z,75.40
2018-09-23T14:18:01.754Z,75.50
2018-09-23T14:20:32.805Z,75.70
2018-09-23T14:23:01.969Z,76.10
2018-09-23T14:25:32.362Z,76.20
2018-09-23T14:31:02.194Z,75.10
2018-09-23T14:33:31.652Z,75.50
2018-09-23T14:36:01.662Z,75.20
2018-09-23T14:38:37.951Z,75.20
2018-09-23T14:41:06.828Z,74.70
2018-09-23T14:43:38.372Z,75.30
2018-09-23T14:46:16.723Z,75.00
2018-09-23T14:48:51.187Z,74.90
2018-09-23T14:51:23.325Z,75.00
2018-09-23T14:53:53.037Z,74.80
2018-09-23T14:56:26.847Z,74.70
2018-09-23T14:58:58.519Z,74.60
2018-09-23T15:01:31.425Z,74.20
2018-09-23T15:06:40.009Z,74.50
2018-09-23T15:09:12.204Z,73.40
2018-09-23T15:11:46.811Z,74.20
2018-09-23T15:14:15.093Z,73.70
2018-09-23T15:16:52.653Z,73.40
2018-09-23T15:19:25.860Z,73.20
2018-09-23T15:21:53.427Z,73.30
2018-09-23T15:24:21.003Z,73.50
2018-09-23T15:26:58.689Z,73.20
2018-09-23T15:29:41.545Z,73.10
2018-09-23T15:32:14.487Z,72.30
2018-09-23T15:34:47.549Z,72.30
2018-09-23T15:37:30.533Z,72.30
2018-09-23T15:40:03.813Z,72.70
2018-09-23T15:42:44.454Z,73.20
2018-09-23T15:45:19.726Z,74.40
2018-09-23T15:47:58.597Z,74.20
2018-09-23T15:50:38.268Z,74.50
2018-09-23T15:53:27.622Z,74.30
2018-09-23T15:56:05.079Z,74.20
2018-09-23T15:58:44.734Z,74.60
2018-09-23T16:01:20.796Z,74.60
2018-09-23T16:04:03.850Z,75.20
2018-09-23T16:06:39.988Z,75.20
2018-09-23T16:09:14.265Z,75.30
2018-09-23T16:11:53.628Z,75.50
2018-09-23T16:14:26.358Z,75.30
2018-09-23T16:17:01.658Z,76.70
2018-09-23T16:19:39.682Z,76.50
2018-09-23T16:22:08.321Z,77.20
2018-09-23T16:24:52.292Z,79.60
2018-09-23T16:27:29.828Z,83.40
2018-09-23T16:29:57.793Z,86.60
2018-09-23T16:32:26.379Z,87.50
2018-09-23T16:35:00.030Z,88.50
2018-09-23T16:37:32.321Z,89.10
2018-09-23T16:40:09.455Z,90.40
2018-09-23T16:42:37.134Z,85.80
2018-09-23T16:45:04.733Z,90.70
2018-09-23T16:47:32.418Z,93.00
2018-09-23T16:50:00.029Z,95.50
2018-09-23T16:52:27.641Z,97.00
2018-09-23T16:54:55.361Z,98.30
2018-09-23T16:57:23.292Z,98.90
2018-09-23T16:59:50.905Z,99.40
2018-09-23T17:02:18.457Z,99.90
2018-09-23T17:04:46.086Z,99.90
2018-09-23T17:07:13.753Z,99.90
2018-09-23T17:09:41.361Z,99.90
2018-09-23T17:12:08.986Z,99.90
2018-09-23T17:14:36.581Z,99.90
2018-09-23T17:17:04.196Z,99.90
2018-09-23T17:19:31.850Z,99.90
2018-09-23T17:21:59.547Z,99.90
2018-09-23T17:24:27.151Z,99.90
2018-09-23T17:26:54.778Z,99.90
2018-09-23T17:29:22.423Z,99.90
2018-09-23T17:31:50.102Z,99.90
2018-09-23T17:34:17.688Z,99.90
2018-09-23T17:36:45.299Z,99.90
2018-09-23T17:39:12.862Z,99.90
2018-09-23T17:41:40.831Z,99.90
2018-09-23T17:44:08.484Z,99.90
2018-09-23T17:46:36.335Z,99.90
2018-09-23T17:49:03.899Z,99.90
2018-09-23T17:51:31.899Z,99.90
2018-09-23T17:53:59.465Z,99.90
2018-09-23T17:56:26.994Z,99.90
2018-09-23T17:58:54.675Z,99.90
2018-09-23T18:01:22.201Z,99.90
2018-09-23T18:03:49.836Z,99.90
2018-09-23T18:06:17.463Z,99.90
2018-09-23T18:08:45.110Z,99.90
2018-09-23T18:11:12.661Z,99.90
2018-09-23T18:13:40.285Z,99.90
2018-09-23T18:16:07.891Z,99.90
2018-09-23T18:18:35.527Z,99.90
2018-09-23T18:21:03.095Z,99.90
2018-09-23T18:23:30.640Z,99.90
2018-09-23T18:25:58.234Z,99.90
2018-09-23T18:28:25.948Z,99.90
2018-09-23T18:30:53.591Z,99.90
2018-09-23T18:33:21.131Z,99.90
2018-09-23T18:35:48.746Z,99.90
2018-09-23T18:38:16.316Z,99.90
2018-09-23T18:40:44.063Z,99.90
2018-09-23T18:43:11.770Z,99.90
2018-09-23T18:45:39.386Z,99.90
2018-09-23T18:48:07.074Z,99.90
2018-09-23T18:50:34.611Z,99.90
2018-09-23T18:53:07.840Z,99.90
2018-09-23T18:55:42.968Z,99.90
2018-09-23T18:58:10.581Z,99.90
2018-09-23T19:00:38.646Z,99.90
2018-09-23T19:03:06.423Z,99.90
2018-09-23T19:05:34.292Z,99.90
2018-09-23T19:08:01.960Z,99.90
2018-09-23T19:10:30.388Z,99.90
2018-09-23T19:13:03.676Z,99.90
2018-09-23T19:15:32.143Z,99.90
2018-09-23T19:17:59.734Z,99.90
2018-09-23T19:20:27.326Z,99.90
2018-09-23T19:23:00.947Z,99.90
2018-09-23T19:25:28.512Z,99.90
2018-09-23T19:27:56.313Z,99.90
2018-09-23T19:30:23.912Z,99.90
2018-09-23T19:32:51.791Z,99.90
2018-09-23T19:35:19.450Z,99.90
2018-09-23T19:37:47.116Z,99.90
2018-09-23T19:40:14.855Z,99.90
2018-09-23T19:42:42.765Z,99.90
2018-09-23T19:45:10.446Z,99.90
2018-09-23T19:47:38.162Z,99.90
2018-09-23T19:50:05.820Z,99.90
2018-09-23T19:52:33.547Z,99.90
2018-09-23T19:55:01.622Z,99.90
2018-09-23T19:57:29.415Z,99.90
2018-09-23T19:59:57.250Z,99.90
2018-09-23T20:02:24.994Z,99.90
2018-09-23T20:04:53.110Z,99.90
2018-09-23T20:07:20.999Z,99.90
2018-09-23T20:09:48.620Z,99.90
2018-09-23T20:12:16.558Z,99.90
2018-09-23T20:14:44.282Z,99.90
2018-09-23T20:17:11.998Z,99.90
2018-09-23T20:19:39.642Z,99.90
2018-09-23T20:22:08.412Z,99.90
2018-09-23T20:24:36.330Z,99.90
2018-09-23T20:27:04.026Z,99.90
2018-09-23T20:29:31.831Z,99.90
2018-09-23T20:31:59.631Z,99.90
2018-09-23T20:34:27.378Z,99.90
2018-09-23T20:36:54.964Z,99.90
2018-09-23T20:39:22.673Z,99.90
2018-09-23T20:41:50.516Z,99.90
2018-09-23T20:44:18.259Z,99.90
2018-09-23T20:46:45.959Z,99.90
2018-09-23T20:49:13.742Z,99.90
2018-09-23T20:51:42.582Z,99.90
2018-09-23T20:54:10.338Z,99.90
2018-09-23T20:56:38.089Z,99.90
2018-09-23T20:59:05.769Z,99.90
2018-09-23T21:01:33.519Z,99.90
2018-09-23T21:04:01.367Z,99.90
2018-09-23T21:06:29.257Z,99.90
2018-09-23T21:08:56.925Z,99.90
2018-09-23T21:11:24.637Z,99.90
2018-09-23T21:13:52.379Z,99.90
2018-09-23T21:16:20.099Z,99.90
2018-09-23T21:18:47.734Z,99.90
2018-09-23T21:21:15.545Z,99.30
2018-09-23T21:23:43.170Z,99.60
2018-09-23T21:26:10.975Z,99.80
2018-09-23T21:28:38.761Z,99.90
2018-09-23T21:31:06.590Z,99.60
2018-09-23T21:33:34.429Z,99.80
2018-09-23T21:36:02.234Z,99.70
2018-09-23T21:38:30.055Z,99.90
2018-09-23T21:40:57.663Z,99.90
2018-09-23T21:43:25.408Z,99.90
2018-09-23T21:45:53.051Z,99.90
2018-09-23T21:48:20.781Z,99.50
2018-09-23T21:50:48.629Z,99.90
2018-09-23T21:53:16.345Z,99.90
2018-09-23T21:55:44.030Z,99.90
2018-09-23T21:58:11.855Z,99.80
2018-09-23T22:00:42.065Z,99.40
2018-09-23T22:03:10.820Z,99.00
2018-09-23T22:05:38.913Z,99.40
2018-09-23T22:08:06.786Z,98.70
2018-09-23T22:10:34.799Z,97.70
2018-09-23T22:13:02.661Z,97.90
2018-09-23T22:15:30.334Z,97.90
2018-09-23T22:17:58.051Z,97.40
2018-09-23T22:20:26.345Z,97.60
2018-09-23T22:22:54.570Z,97.50
2018-09-23T22:25:22.753Z,97.60
2018-09-23T22:27:50.768Z,98.10
2018-09-23T22:30:18.532Z,97.60
2018-09-23T22:32:46.230Z,97.10
2018-09-23T22:35:14.092Z,97.40
2018-09-23T22:37:41.883Z,97.60
2018-09-23T22:40:10.077Z,97.60
2018-09-23T22:42:38.344Z,97.30
2018-09-23T22:45:06.835Z,97.50
2018-09-23T22:47:34.929Z,97.20
2018-09-23T22:50:03.363Z,97.30
2018-09-23T22:52:31.054Z,97.60
2018-09-23T22:54:58.808Z,97.10
2018-09-23T22:57:26.446Z,97.30
2018-09-23T22:59:54.228Z,97.50
2018-09-23T23:02:21.932Z,97.60
2018-09-23T23:04:49.779Z,96.40
2018-09-23T23:07:17.866Z,95.70
2018-09-23T23:09:45.669Z,95.90
2018-09-23T23:12:13.463Z,95.80
2018-09-23T23:14:45.659Z,95.70
2018-09-23T23:17:13.435Z,95.70
2018-09-23T23:19:41.241Z,95.90
2018-09-23T23:22:08.838Z,96.20
2018-09-23T23:24:36.535Z,96.00
2018-09-23T23:27:04.306Z,95.60
2018-09-23T23:29:32.062Z,96.30
2018-09-23T23:31:59.985Z,95.80
2018-09-23T23:34:27.783Z,96.00
2018-09-23T23:36:55.474Z,95.90
2018-09-23T23:39:23.115Z,95.00
2018-09-23T23:41:50.906Z,95.90
2018-09-23T23:44:18.577Z,95.50
2018-09-23T23:46:46.326Z,95.80
2018-09-23T23:49:14.002Z,96.00
2018-09-23T23:51:41.746Z,95.70
2018-09-23T23:54:09.514Z,95.40
2018-09-23T23:56:37.292Z,95.60
2018-09-23T23:59:05.499Z,95.50
